createdAt,value
2023-05-05T00:00:07.405Z,50.849522
2023-05-05T00:01:07.243Z,50.849522
2023-05-05T00:02:07.231Z,50.849476
2023-05-05T00:03:07.283Z,50.849503
2023-05-05T00:04:07.343Z,50.849522
2023-05-05T00:05:07.185Z,50.849537
2023-05-05T00:06:07.160Z,50.849548
2023-05-05T00:07:07.165Z,50.849548
2023-05-05T00:08:07.143Z,50.849518
2023-05-05T00:09:07.234Z,50.849537
2023-05-05T00:10:07.300Z,50.849537
2023-05-05T00:11:07.132Z,50.849487
2023-05-05T00:12:07.120Z,50.849533
2023-05-05T00:13:07.222Z,50.849560
2023-05-05T00:14:07.115Z,50.849529
2023-05-05T00:15:07.139Z,50.849522
2023-05-05T00:16:07.104Z,50.849525
2023-05-05T00:17:07.153Z,50.849529
2023-05-05T00:18:07.101Z,50.849525
2023-05-05T00:19:07.083Z,50.849522
2023-05-05T00:20:07.186Z,50.849514
2023-05-05T00:21:07.069Z,50.849495
2023-05-05T00:22:07.053Z,50.849514
2023-05-05T00:23:07.029Z,50.849545
2023-05-05T00:24:07.039Z,50.849552
2023-05-05T00:25:07.021Z,50.849529
2023-05-05T00:26:06.997Z,50.849510
2023-05-05T00:27:07.228Z,50.849522
2023-05-05T00:28:06.977Z,50.849537
2023-05-05T00:29:06.988Z,50.849541
2023-05-05T00:30:07.250Z,50.849522
2023-05-05T00:31:06.971Z,50.849525
2023-05-05T00:32:06.960Z,50.849529
2023-05-05T00:33:07.001Z,50.849514
2023-05-05T00:34:06.950Z,50.849529
2023-05-05T00:35:06.948Z,50.849525
2023-05-05T00:36:06.923Z,50.849503
2023-05-05T00:37:06.917Z,50.849529
2023-05-05T00:38:06.903Z,50.849503
2023-05-05T00:39:06.959Z,50.849499
2023-05-05T00:40:07.231Z,50.849499
2023-05-05T00:41:06.889Z,50.849529
2023-05-05T00:42:06.877Z,50.849529
2023-05-05T00:43:06.871Z,50.849514
2023-05-05T00:44:06.858Z,50.849491
2023-05-05T00:45:06.895Z,50.849533
2023-05-05T00:46:07.043Z,50.849529
2023-05-05T00:47:06.846Z,50.849571
2023-05-05T00:48:06.926Z,50.849533
2023-05-05T00:49:06.887Z,50.849541
2023-05-05T00:50:07.090Z,50.849533
2023-05-05T00:51:06.848Z,50.849510
2023-05-05T00:52:06.789Z,50.849503
2023-05-05T00:53:06.825Z,50.849506
2023-05-05T00:54:06.768Z,50.849514
2023-05-05T00:55:06.784Z,50.849522
2023-05-05T00:56:06.751Z,50.849518
2023-05-05T00:57:06.782Z,50.849529
2023-05-05T00:58:06.761Z,50.849525
2023-05-05T00:59:06.753Z,50.849510
2023-05-05T01:00:06.972Z,50.849533
2023-05-05T01:01:06.722Z,50.849522
2023-05-05T01:02:06.712Z,50.849533
2023-05-05T01:03:06.846Z,50.849545
2023-05-05T01:04:06.806Z,50.849525
2023-05-05T01:05:06.683Z,50.849533
2023-05-05T01:06:06.692Z,50.849514
2023-05-05T01:07:06.670Z,50.849525
2023-05-05T01:08:06.658Z,50.849518
2023-05-05T01:09:06.682Z,50.849525
2023-05-05T01:10:18.838Z,50.849522
2023-05-05T01:11:07.656Z,50.849514
2023-05-05T01:12:06.644Z,50.849545
2023-05-05T01:13:06.735Z,50.849545
2023-05-05T01:14:06.659Z,50.849529
2023-05-05T01:15:06.622Z,50.849533
2023-05-05T01:16:06.649Z,50.849556
2023-05-05T01:17:06.642Z,50.849529
2023-05-05T01:18:06.701Z,50.849545
2023-05-05T01:19:06.575Z,50.849552
2023-05-05T01:20:06.728Z,50.849552
2023-05-05T01:21:06.579Z,50.849522
2023-05-05T01:22:06.547Z,50.849533
2023-05-05T01:23:06.569Z,50.849510
2023-05-05T01:24:06.535Z,50.849529
2023-05-05T01:25:06.540Z,50.849529
2023-05-05T01:26:06.516Z,50.849537
2023-05-05T01:27:06.505Z,50.849518
2023-05-05T01:28:06.498Z,50.849514
2023-05-05T01:29:06.509Z,50.849533
2023-05-05T01:30:06.683Z,50.849518
2023-05-05T01:31:06.614Z,50.849537
2023-05-05T01:32:06.461Z,50.849529
2023-05-05T01:33:06.472Z,50.849541
2023-05-05T01:34:06.444Z,50.849564
2023-05-05T01:35:06.449Z,50.849541
2023-05-05T01:36:06.427Z,50.849548
2023-05-05T01:37:06.430Z,50.849529
2023-05-05T01:38:06.398Z,50.849556
2023-05-05T01:39:06.439Z,50.849545
2023-05-05T01:40:06.639Z,50.849529
2023-05-05T01:41:06.435Z,50.849514
2023-05-05T01:42:06.364Z,50.849533
2023-05-05T01:43:06.371Z,50.849510
2023-05-05T01:44:06.365Z,50.849522
2023-05-05T01:45:06.354Z,50.849533
2023-05-05T01:46:06.391Z,50.849545
2023-05-05T01:47:06.355Z,50.849594
2023-05-05T01:48:06.361Z,50.849594
2023-05-05T01:49:06.310Z,50.849583
2023-05-05T01:50:06.538Z,50.849518
2023-05-05T01:51:06.303Z,50.849518
2023-05-05T01:52:06.277Z,50.849514
2023-05-05T01:53:06.331Z,50.849510
2023-05-05T01:54:06.254Z,50.849503
2023-05-05T01:55:06.264Z,50.849525
2023-05-05T01:56:06.246Z,50.849541
2023-05-05T01:57:06.316Z,50.849552
2023-05-05T01:58:06.239Z,50.849541
2023-05-05T01:59:06.344Z,50.849552
2023-05-05T02:00:06.476Z,50.849522
2023-05-05T02:01:06.375Z,50.849541
2023-05-05T02:02:06.206Z,50.849567
2023-05-05T02:03:06.301Z,50.849560
2023-05-05T02:04:06.208Z,50.849541
2023-05-05T02:05:06.217Z,50.849556
2023-05-05T02:06:06.173Z,50.849556
2023-05-05T02:07:06.151Z,50.849564
2023-05-05T02:08:06.157Z,50.849560
2023-05-05T02:09:06.142Z,50.849556
2023-05-05T02:10:06.405Z,50.849560
2023-05-05T02:11:06.134Z,50.849575
2023-05-05T02:12:06.138Z,50.849590
2023-05-05T02:13:06.202Z,50.849560
2023-05-05T02:14:06.122Z,50.849545
2023-05-05T02:15:06.100Z,50.849548
2023-05-05T02:16:06.163Z,50.849556
2023-05-05T02:17:06.081Z,50.849586
2023-05-05T02:18:06.097Z,50.849575
2023-05-05T02:19:06.068Z,50.849552
2023-05-05T02:20:06.179Z,50.849552
2023-05-05T02:21:06.038Z,50.849583
2023-05-05T02:22:06.108Z,50.849583
2023-05-05T02:23:06.095Z,50.849567
2023-05-05T02:24:06.043Z,50.849556
2023-05-05T02:25:06.053Z,50.849556
2023-05-05T02:26:06.031Z,50.849571
2023-05-05T02:27:06.009Z,50.849602
2023-05-05T02:28:06.023Z,50.849602
2023-05-05T02:29:05.990Z,50.849606
2023-05-05T02:30:06.219Z,50.849567
2023-05-05T02:31:06.016Z,50.849545
2023-05-05T02:32:05.988Z,50.849602
2023-05-05T02:33:05.973Z,50.849598
2023-05-05T02:34:05.979Z,50.849606
2023-05-05T02:35:05.928Z,50.849594
2023-05-05T02:36:05.938Z,50.849510
2023-05-05T02:37:05.906Z,50.849575
2023-05-05T02:38:05.905Z,50.849548
2023-05-05T02:39:05.892Z,50.849579
2023-05-05T02:40:06.072Z,50.849571
2023-05-05T02:41:05.869Z,50.849556
2023-05-05T02:42:05.923Z,50.849571
2023-05-05T02:43:05.969Z,50.849602
2023-05-05T02:44:05.866Z,50.849617
2023-05-05T02:45:05.851Z,50.849598
2023-05-05T02:46:05.913Z,50.849648
2023-05-05T02:47:05.853Z,50.849621
2023-05-05T02:48:05.865Z,50.849579
2023-05-05T02:49:05.817Z,50.849640
2023-05-05T02:50:05.941Z,50.849628
2023-05-05T02:51:05.806Z,50.849598
2023-05-05T02:52:05.824Z,50.849602
2023-05-05T02:53:05.787Z,50.849545
2023-05-05T02:54:05.779Z,50.849617
2023-05-05T02:55:05.762Z,50.849613
2023-05-05T02:56:05.763Z,50.849609
2023-05-05T02:57:05.744Z,50.849560
2023-05-05T02:58:05.783Z,50.849598
2023-05-05T02:59:05.732Z,50.849579
2023-05-05T03:00:06.043Z,50.849613
2023-05-05T03:01:05.742Z,50.849598
2023-05-05T03:02:05.719Z,50.849602
2023-05-05T03:03:05.806Z,50.849613
2023-05-05T03:04:05.724Z,50.849590
2023-05-05T03:05:05.680Z,50.849602
2023-05-05T03:06:05.674Z,50.849606
2023-05-05T03:07:05.670Z,50.849564
2023-05-05T03:08:05.672Z,50.849575
2023-05-05T03:09:05.646Z,50.849590
2023-05-05T03:10:05.934Z,50.849571
2023-05-05T03:11:05.630Z,50.849606
2023-05-05T03:12:05.649Z,50.849625
2023-05-05T03:13:05.644Z,50.849644
2023-05-05T03:14:05.622Z,50.849606
2023-05-05T03:15:05.581Z,50.849606
2023-05-05T03:16:05.691Z,50.849575
2023-05-05T03:17:05.587Z,50.849556
2023-05-05T03:20:16.984Z,50.849579
2023-05-05T03:21:17.004Z,50.849556
2023-05-05T03:22:16.976Z,50.849541
2023-05-05T03:23:16.952Z,50.849545
2023-05-05T03:24:17.061Z,50.849556
2023-05-05T03:25:16.970Z,50.849537
2023-05-05T03:26:16.930Z,50.849548
2023-05-05T03:27:16.911Z,50.849552
2023-05-05T03:28:16.952Z,50.849567
2023-05-05T03:29:16.926Z,50.849567
2023-05-05T03:30:16.914Z,50.849579
2023-05-05T03:31:17.007Z,50.849564
2023-05-05T03:32:16.898Z,50.849564
2023-05-05T03:33:16.883Z,50.849552
2023-05-05T03:34:16.865Z,50.849537
2023-05-05T03:35:16.853Z,50.849506
2023-05-05T03:36:16.866Z,50.849522
2023-05-05T03:37:16.828Z,50.849552
2023-05-05T03:38:16.904Z,50.849514
2023-05-05T03:39:16.892Z,50.849518
2023-05-05T03:40:16.824Z,50.849495
2023-05-05T03:41:16.795Z,50.849522
2023-05-05T03:42:16.799Z,50.849506
2023-05-05T03:43:16.792Z,50.849529
2023-05-05T03:44:16.794Z,50.849560
2023-05-05T03:45:16.807Z,50.849533
2023-05-05T03:46:16.807Z,50.849548
2023-05-05T03:47:16.754Z,50.849510
2023-05-05T03:48:16.743Z,50.849453
2023-05-05T03:49:16.733Z,50.849449
2023-05-05T03:50:16.734Z,50.849491
2023-05-05T03:51:16.748Z,50.849514
2023-05-05T03:52:16.740Z,50.849533
2023-05-05T03:53:16.730Z,50.849545
2023-05-05T03:54:16.700Z,50.849514
2023-05-05T03:55:16.690Z,50.849525
2023-05-05T03:56:16.790Z,50.849537
2023-05-05T03:57:16.712Z,50.849533
2023-05-05T03:58:16.695Z,50.849537
2023-05-05T03:59:16.650Z,50.849525
2023-05-05T04:00:16.647Z,50.849533
2023-05-05T04:01:16.655Z,50.849499
2023-05-05T04:02:18.775Z,50.849525
2023-05-05T04:03:16.780Z,50.849552
2023-05-05T04:04:16.684Z,50.849571
2023-05-05T04:05:16.625Z,50.849548
2023-05-05T04:06:16.612Z,50.849537
2023-05-05T04:07:16.608Z,50.849529
2023-05-05T04:08:16.601Z,50.849514
2023-05-05T04:09:16.612Z,50.849556
2023-05-05T04:10:16.590Z,50.849548
2023-05-05T04:11:16.580Z,50.849560
2023-05-05T04:12:16.613Z,50.849560
2023-05-05T04:13:16.570Z,50.849548
2023-05-05T04:14:16.548Z,50.849556
2023-05-05T04:15:16.668Z,50.849541
2023-05-05T04:16:16.583Z,50.849525
2023-05-05T04:17:16.525Z,50.849529
2023-05-05T04:18:16.517Z,50.849522
2023-05-05T04:19:16.584Z,50.849533
2023-05-05T04:20:16.506Z,50.849537
2023-05-05T04:21:16.501Z,50.849529
2023-05-05T04:22:16.485Z,50.849514
2023-05-05T04:23:16.462Z,50.849525
2023-05-05T04:24:16.546Z,50.849541
2023-05-05T04:25:16.469Z,50.849533
2023-05-05T04:26:16.451Z,50.849525
2023-05-05T04:27:16.490Z,50.849529
2023-05-05T04:28:16.461Z,50.849537
2023-05-05T04:29:17.437Z,50.849529
2023-05-05T04:30:16.530Z,50.849537
2023-05-05T04:31:16.435Z,50.849541
2023-05-05T04:32:16.409Z,50.849545
2023-05-05T04:33:18.367Z,50.849548
2023-05-05T04:34:17.304Z,50.849533
2023-05-05T04:35:16.387Z,50.849525
2023-05-05T04:36:16.392Z,50.849522
2023-05-05T04:37:16.873Z,50.849525
2023-05-05T04:38:16.347Z,50.849518
2023-05-05T04:39:16.376Z,50.849522
2023-05-05T04:40:17.814Z,50.849525
2023-05-05T04:41:16.391Z,50.849533
2023-05-05T04:42:16.331Z,50.849525
2023-05-05T04:43:16.312Z,50.849514
2023-05-05T04:44:16.301Z,50.849522
2023-05-05T04:45:16.311Z,50.849514
2023-05-05T04:46:17.175Z,50.849499
2023-05-05T04:47:16.284Z,50.849525
2023-05-05T04:48:16.274Z,50.849487
2023-05-05T04:49:16.262Z,50.849453
2023-05-05T04:50:16.259Z,50.849483
2023-05-05T04:51:16.547Z,50.849506
2023-05-05T04:52:16.244Z,50.849522
2023-05-05T04:53:17.319Z,50.849491
2023-05-05T04:54:16.224Z,50.849506
2023-05-05T04:55:16.207Z,50.849510
2023-05-05T04:56:16.210Z,50.849487
2023-05-05T04:57:16.190Z,50.849533
2023-05-05T04:58:16.253Z,50.849552
2023-05-05T04:59:16.218Z,50.849480
2023-05-05T05:00:16.199Z,50.849525
2023-05-05T05:01:16.164Z,50.849514
2023-05-05T05:02:16.253Z,50.849514
2023-05-05T05:03:16.233Z,50.849525
2023-05-05T05:04:16.145Z,50.849480
2023-05-05T05:05:16.167Z,50.849495
2023-05-05T05:06:16.262Z,50.849495
2023-05-05T05:07:16.254Z,50.849548
2023-05-05T05:08:16.114Z,50.849499
2023-05-05T05:09:16.094Z,50.849464
2023-05-05T05:10:16.109Z,50.849506
2023-05-05T05:11:16.123Z,50.849483
2023-05-05T05:12:16.594Z,50.849487
2023-05-05T05:13:16.116Z,50.849499
2023-05-05T05:14:16.114Z,50.849495
2023-05-05T05:15:16.688Z,50.849525
2023-05-05T05:16:16.070Z,50.849541
2023-05-05T05:17:16.273Z,50.849499
2023-05-05T05:18:16.039Z,50.849491
2023-05-05T05:19:16.020Z,50.849480
2023-05-05T05:20:16.055Z,50.849483
2023-05-05T05:21:15.996Z,50.849495
2023-05-05T05:22:16.035Z,50.849522
2023-05-05T05:23:16.000Z,50.849491
2023-05-05T05:24:15.987Z,50.849483
2023-05-05T05:25:15.990Z,50.849487
2023-05-05T05:26:15.960Z,50.849514
2023-05-05T05:27:15.961Z,50.849510
2023-05-05T05:28:16.027Z,50.849548
2023-05-05T05:29:15.948Z,50.849529
2023-05-05T05:30:15.973Z,50.849552
2023-05-05T05:31:16.027Z,50.849472
2023-05-05T05:32:16.038Z,50.849510
2023-05-05T05:33:15.933Z,50.849537
2023-05-05T05:34:15.948Z,50.849522
2023-05-05T05:35:16.044Z,50.849541
2023-05-05T05:36:15.904Z,50.849510
2023-05-05T05:37:15.890Z,50.849487
2023-05-05T05:38:15.864Z,50.849503
2023-05-05T05:39:15.883Z,50.849476
2023-05-05T05:40:15.889Z,50.849480
2023-05-05T05:41:15.853Z,50.849491
2023-05-05T05:42:15.829Z,50.849495
2023-05-05T05:43:15.824Z,50.849510
2023-05-05T05:44:15.856Z,50.849503
2023-05-05T05:45:15.811Z,50.849518
2023-05-05T05:46:15.901Z,50.849506
2023-05-05T05:47:15.796Z,50.849506
2023-05-05T05:48:15.787Z,50.849537
2023-05-05T05:49:15.868Z,50.849510
2023-05-05T05:50:15.852Z,50.849510
2023-05-05T05:51:15.772Z,50.849552
2023-05-05T05:52:15.756Z,50.849525
2023-05-05T05:53:15.753Z,50.849510
2023-05-05T05:54:15.742Z,50.849518
2023-05-05T05:55:15.776Z,50.849525
2023-05-05T05:56:15.707Z,50.849537
2023-05-05T05:57:15.717Z,50.849525
2023-05-05T05:58:15.697Z,50.849560
2023-05-05T05:59:15.700Z,50.849567
2023-05-05T06:00:15.678Z,50.849575
2023-05-05T06:01:15.737Z,50.849545
2023-05-05T06:02:15.682Z,50.849503
2023-05-05T06:03:15.821Z,50.849499
2023-05-05T06:04:15.688Z,50.849510
2023-05-05T06:05:15.665Z,50.849495
2023-05-05T06:06:15.637Z,50.849491
2023-05-05T06:07:15.673Z,50.849495
2023-05-05T06:08:15.647Z,50.849480
2023-05-05T06:09:15.618Z,50.849491
2023-05-05T06:10:27.413Z,50.849487
2023-05-05T06:11:16.603Z,50.849525
2023-05-05T06:12:15.587Z,50.849514
2023-05-05T06:13:15.739Z,50.849518
2023-05-05T06:14:16.313Z,50.849510
2023-05-05T06:15:15.563Z,50.849487
2023-05-05T06:16:15.618Z,50.849499
2023-05-05T06:17:15.558Z,50.849483
2023-05-05T06:18:15.528Z,50.849483
2023-05-05T06:19:15.607Z,50.849483
2023-05-05T06:20:15.514Z,50.849518
2023-05-05T06:21:15.524Z,50.849518
2023-05-05T06:22:15.546Z,50.849522
2023-05-05T06:23:15.488Z,50.849487
2023-05-05T06:24:15.488Z,50.849461
2023-05-05T06:25:15.489Z,50.849468
2023-05-05T06:26:15.473Z,50.849468
2023-05-05T06:27:15.457Z,50.849491
2023-05-05T06:28:15.460Z,50.849480
2023-05-05T06:29:15.447Z,50.849480
2023-05-05T06:30:15.436Z,50.849487
2023-05-05T06:31:15.954Z,50.849476
2023-05-05T06:32:15.421Z,50.849480
2023-05-05T06:33:15.479Z,50.849487
2023-05-05T06:34:15.405Z,50.849506
2023-05-05T06:35:15.397Z,50.849480
2023-05-05T06:36:15.432Z,50.849476
2023-05-05T06:37:15.424Z,50.849468
2023-05-05T06:38:15.354Z,50.849468
2023-05-05T06:39:16.186Z,50.849495
2023-05-05T06:40:15.349Z,50.849476
2023-05-05T06:41:15.342Z,50.849476
2023-05-05T06:42:15.369Z,50.849503
2023-05-05T06:43:15.329Z,50.849480
2023-05-05T06:44:15.332Z,50.849491
2023-05-05T06:45:15.363Z,50.849518
2023-05-05T06:46:15.386Z,50.849503
2023-05-05T06:47:15.299Z,50.849533
2023-05-05T06:48:15.322Z,50.849499
2023-05-05T06:49:15.293Z,50.849503
2023-05-05T06:50:15.285Z,50.849495
2023-05-05T06:51:15.313Z,50.849499
2023-05-05T06:52:15.355Z,50.849514
2023-05-05T06:53:15.277Z,50.849529
2023-05-05T06:54:15.262Z,50.849491
2023-05-05T06:55:15.509Z,50.849499
2023-05-05T06:56:15.214Z,50.849503
2023-05-05T06:57:15.216Z,50.849487
2023-05-05T06:58:15.234Z,50.849510
2023-05-05T06:59:15.212Z,50.849491
2023-05-05T07:00:15.216Z,50.849518
2023-05-05T07:01:15.292Z,50.849506
2023-05-05T07:02:15.182Z,50.849487
2023-05-05T07:03:15.257Z,50.849510
2023-05-05T07:04:15.219Z,50.849491
2023-05-05T07:05:15.149Z,50.849522
2023-05-05T07:06:15.177Z,50.849518
2023-05-05T07:07:15.180Z,50.849510
2023-05-05T07:08:15.195Z,50.849525
2023-05-05T07:09:17.003Z,50.849499
2023-05-05T07:10:15.107Z,50.849495
2023-05-05T07:11:15.115Z,50.849506
2023-05-05T07:12:15.119Z,50.849506
2023-05-05T07:13:15.275Z,50.849525
2023-05-05T07:14:15.063Z,50.849503
2023-05-05T07:15:26.721Z,50.849514
2023-05-05T07:16:16.073Z,50.849510
2023-05-05T07:17:15.071Z,50.849510
2023-05-05T07:18:15.087Z,50.849529
2023-05-05T07:19:15.034Z,50.849545
2023-05-05T07:20:15.039Z,50.849518
2023-05-05T07:21:15.017Z,50.849510
2023-05-05T07:22:15.014Z,50.849518
2023-05-05T07:23:15.045Z,50.849503
2023-05-05T07:24:15.077Z,50.849503
2023-05-05T07:25:14.980Z,50.849480
2023-05-05T07:26:14.980Z,50.849480
2023-05-05T07:27:14.965Z,50.849510
2023-05-05T07:28:14.995Z,50.849522
2023-05-05T07:29:15.021Z,50.849510
2023-05-05T07:30:17.566Z,50.849503
2023-05-05T07:31:14.959Z,50.849506
2023-05-05T07:32:14.957Z,50.849487
2023-05-05T07:33:14.921Z,50.849506
2023-05-05T07:34:14.911Z,50.849510
2023-05-05T07:35:14.904Z,50.849491
2023-05-05T07:36:14.939Z,50.849487
2023-05-05T07:37:14.903Z,50.849483
2023-05-05T07:38:14.873Z,50.849487
2023-05-05T07:39:14.952Z,50.849503
2023-05-05T07:40:14.987Z,50.849491
2023-05-05T07:41:14.878Z,50.849491
2023-05-05T07:42:14.866Z,50.849483
2023-05-05T07:43:14.862Z,50.849503
2023-05-05T07:44:14.832Z,50.849476
2023-05-05T07:45:14.824Z,50.849483
2023-05-05T07:46:14.863Z,50.849487
2023-05-05T07:47:14.838Z,50.849483
2023-05-05T07:48:14.835Z,50.849487
2023-05-05T07:49:14.793Z,50.849510
2023-05-05T07:50:14.776Z,50.849514
2023-05-05T07:51:14.794Z,50.849506
2023-05-05T07:52:14.750Z,50.849499
2023-05-05T07:53:15.210Z,50.849503
2023-05-05T07:54:14.768Z,50.849506
2023-05-05T07:55:14.751Z,50.849491
2023-05-05T07:56:14.784Z,50.849503
2023-05-05T07:57:14.746Z,50.849499
2023-05-05T07:58:14.720Z,50.849483
2023-05-05T07:59:14.729Z,50.849472
2023-05-05T08:00:14.756Z,50.849495
2023-05-05T08:01:14.700Z,50.849518
2023-05-05T08:02:14.727Z,50.849480
2023-05-05T08:03:14.705Z,50.849487
2023-05-05T08:04:14.740Z,50.849503
2023-05-05T08:05:14.666Z,50.849525
2023-05-05T08:06:14.672Z,50.849514
2023-05-05T08:07:15.456Z,50.849510
2023-05-05T08:08:14.644Z,50.849480
2023-05-05T08:09:14.622Z,50.849480
2023-05-05T08:10:14.617Z,50.849503
2023-05-05T08:11:14.724Z,50.849514
2023-05-05T08:12:14.676Z,50.849545
2023-05-05T08:13:14.638Z,50.849510
2023-05-05T08:14:14.588Z,50.849541
2023-05-05T08:15:14.588Z,50.849583
2023-05-05T08:16:14.621Z,50.849537
2023-05-05T08:17:14.663Z,50.849522
2023-05-05T08:18:14.708Z,50.849567
2023-05-05T08:19:27.668Z,50.849579
2023-05-05T08:20:15.535Z,50.849552
2023-05-05T08:21:14.556Z,50.849525
2023-05-05T08:22:14.528Z,50.849514
2023-05-05T08:23:14.551Z,50.849525
2023-05-05T08:24:14.519Z,50.849552
2023-05-05T08:25:14.569Z,50.849541
2023-05-05T08:26:14.508Z,50.849579
2023-05-05T08:27:14.503Z,50.849586
2023-05-05T08:28:14.570Z,50.849571
2023-05-05T08:29:14.525Z,50.849556
2023-05-05T08:30:14.494Z,50.849590
2023-05-05T08:31:14.467Z,50.849529
2023-05-05T08:32:14.443Z,50.849560
2023-05-05T08:33:14.539Z,50.849499
2023-05-05T08:34:14.427Z,50.849560
2023-05-05T08:35:14.505Z,50.849533
2023-05-05T08:36:14.429Z,50.849529
2023-05-05T08:37:14.419Z,50.849560
2023-05-05T08:38:14.482Z,50.849617
2023-05-05T08:39:14.425Z,50.849567
2023-05-05T08:40:14.506Z,50.849579
2023-05-05T08:41:14.530Z,50.849556
2023-05-05T08:42:22.310Z,50.849621
2023-05-05T08:43:15.382Z,50.849571
2023-05-05T08:44:14.493Z,50.849560
2023-05-05T08:45:14.373Z,50.849575
2023-05-05T08:46:14.380Z,50.849533
2023-05-05T08:47:14.417Z,50.849545
2023-05-05T08:48:14.339Z,50.849533
2023-05-05T08:49:14.335Z,50.849583
2023-05-05T08:50:14.306Z,50.849579
2023-05-05T08:51:14.317Z,50.849545
2023-05-05T08:52:14.319Z,50.849613
2023-05-05T08:53:14.322Z,50.849575
2023-05-05T08:54:14.288Z,50.849571
2023-05-05T08:55:14.298Z,50.849533
2023-05-05T08:56:14.261Z,50.849522
2023-05-05T08:57:15.269Z,50.849514
2023-05-05T08:58:14.269Z,50.849567
2023-05-05T08:59:14.293Z,50.849560
2023-05-05T09:00:14.396Z,50.849525
2023-05-05T09:01:14.236Z,50.849567
2023-05-05T09:02:14.235Z,50.849541
2023-05-05T09:03:14.467Z,50.849510
2023-05-05T09:04:14.208Z,50.849545
2023-05-05T09:05:14.210Z,50.849583
2023-05-05T09:06:14.175Z,50.849545
2023-05-05T09:07:14.226Z,50.849564
2023-05-05T09:08:14.202Z,50.849548
2023-05-05T09:09:14.162Z,50.849552
2023-05-05T09:10:14.184Z,50.849541
2023-05-05T09:11:14.157Z,50.849541
2023-05-05T09:12:14.119Z,50.849510
2023-05-05T09:13:14.168Z,50.849545
2023-05-05T09:14:14.117Z,50.849537
2023-05-05T09:15:14.102Z,50.849552
2023-05-05T09:16:14.608Z,50.849552
2023-05-05T09:17:14.090Z,50.849533
2023-05-05T09:18:14.064Z,50.849545
2023-05-05T09:19:14.072Z,50.849545
2023-05-05T09:20:14.109Z,50.849514
2023-05-05T09:21:14.055Z,50.849537
2023-05-05T09:22:14.066Z,50.849518
2023-05-05T09:23:14.052Z,50.849499
2023-05-05T09:24:14.020Z,50.849503
2023-05-05T09:25:14.024Z,50.849510
2023-05-05T09:26:14.020Z,50.849518
2023-05-05T09:27:14.064Z,50.849556
2023-05-05T09:28:14.039Z,50.849545
2023-05-05T09:29:14.123Z,50.849522
2023-05-05T09:30:13.970Z,50.849525
2023-05-05T09:31:14.113Z,50.849537
2023-05-05T09:32:13.970Z,50.849529
2023-05-05T09:33:14.028Z,50.849525
2023-05-05T09:34:14.045Z,50.849545
2023-05-05T09:35:13.943Z,50.849560
2023-05-05T09:36:13.937Z,50.849533
2023-05-05T09:37:13.960Z,50.849537
2023-05-05T09:38:13.917Z,50.849529
2023-05-05T09:39:13.913Z,50.849533
2023-05-05T09:40:13.951Z,50.849522
2023-05-05T09:41:13.889Z,50.849518
2023-05-05T09:42:13.875Z,50.849506
2023-05-05T09:43:13.872Z,50.849518
2023-05-05T09:44:13.870Z,50.849525
2023-05-05T09:45:13.882Z,50.849545
2023-05-05T09:46:13.956Z,50.849525
2023-05-05T09:47:28.462Z,50.849503
2023-05-05T09:48:14.918Z,50.849522
2023-05-05T09:49:13.854Z,50.849522
2023-05-05T09:50:13.822Z,50.849541
2023-05-05T09:51:13.851Z,50.849514
2023-05-05T09:52:13.807Z,50.849533
2023-05-05T09:53:13.794Z,50.849545
2023-05-05T09:54:13.776Z,50.849522
2023-05-05T09:55:13.859Z,50.849533
2023-05-05T09:56:13.933Z,50.849529
2023-05-05T09:57:13.776Z,50.849510
2023-05-05T09:58:13.825Z,50.849541
2023-05-05T09:59:13.760Z,50.849552
2023-05-05T10:00:13.755Z,50.849552
2023-05-05T10:01:13.838Z,50.849506
2023-05-05T10:02:13.770Z,50.849514
2023-05-05T10:03:13.935Z,50.849529
2023-05-05T10:04:13.875Z,50.849552
2023-05-05T10:05:13.772Z,50.849548
2023-05-05T10:06:13.678Z,50.849560
2023-05-05T10:07:13.686Z,50.849529
2023-05-05T10:08:13.718Z,50.849541
2023-05-05T10:09:13.671Z,50.849522
2023-05-05T10:10:13.649Z,50.849510
2023-05-05T10:11:13.630Z,50.849503
2023-05-05T10:12:13.624Z,50.849529
2023-05-05T10:13:13.676Z,50.849529
2023-05-05T10:14:13.630Z,50.849522
2023-05-05T10:15:13.601Z,50.849522
2023-05-05T10:16:13.661Z,50.849525
2023-05-05T10:17:13.584Z,50.849510
2023-05-05T10:18:13.635Z,50.849510
2023-05-05T10:19:13.618Z,50.849495
2023-05-05T10:20:13.580Z,50.849499
2023-05-05T10:21:13.572Z,50.849503
2023-05-05T10:22:13.556Z,50.849499
2023-05-05T10:23:13.536Z,50.849499
2023-05-05T10:24:13.540Z,50.849503
2023-05-05T10:25:13.567Z,50.849503
2023-05-05T10:26:13.507Z,50.849499
2023-05-05T10:27:13.508Z,50.849503
2023-05-05T10:28:13.500Z,50.849499
2023-05-05T10:29:13.476Z,50.849495
2023-05-05T10:30:13.485Z,50.849483
2023-05-05T10:31:24.209Z,50.849487
2023-05-05T10:32:37.106Z,50.849495
2023-05-05T10:34:13.580Z,50.849506
2023-05-05T10:35:13.442Z,50.849514
2023-05-05T10:36:13.510Z,50.849510
2023-05-05T10:37:13.489Z,50.849495
2023-05-05T10:38:13.430Z,50.849495
2023-05-05T10:39:13.408Z,50.849503
2023-05-05T10:40:13.427Z,50.849506
2023-05-05T10:41:13.396Z,50.849487
2023-05-05T10:42:13.473Z,50.849495
2023-05-05T10:43:13.421Z,50.849495
2023-05-05T10:44:13.408Z,50.849483
2023-05-05T10:45:13.421Z,50.849453
2023-05-05T10:46:13.423Z,50.849476
2023-05-05T10:47:13.450Z,50.849472
2023-05-05T10:48:13.476Z,50.849510
2023-05-05T10:49:13.594Z,50.849499
2023-05-05T10:50:13.372Z,50.849487
2023-05-05T10:51:15.420Z,50.849499
2023-05-05T10:52:14.484Z,50.849487
2023-05-05T10:53:14.005Z,50.849468
2023-05-05T10:54:13.410Z,50.849491
2023-05-05T10:55:13.300Z,50.849495
2023-05-05T10:56:13.296Z,50.849480
2023-05-05T10:57:13.288Z,50.849449
2023-05-05T10:58:13.327Z,50.849476
2023-05-05T10:59:13.276Z,50.849480
2023-05-05T11:00:15.084Z,50.849480
2023-05-05T11:01:13.263Z,50.849480
2023-05-05T11:02:13.325Z,50.849487
2023-05-05T11:03:13.347Z,50.849461
2023-05-05T11:04:13.263Z,50.849461
2023-05-05T11:05:13.276Z,50.849457
2023-05-05T11:06:13.250Z,50.849480
2023-05-05T11:07:15.056Z,50.849480
2023-05-05T11:08:13.317Z,50.849461
2023-05-05T11:09:13.185Z,50.849445
2023-05-05T11:10:13.212Z,50.849480
2023-05-05T11:11:13.218Z,50.849487
2023-05-05T11:12:13.181Z,50.849522
2023-05-05T11:13:13.170Z,50.849506
2023-05-05T11:14:13.214Z,50.849468
2023-05-05T11:15:13.147Z,50.849464
2023-05-05T11:16:13.281Z,50.849442
2023-05-05T11:17:13.131Z,50.849464
2023-05-05T11:18:13.153Z,50.849480
2023-05-05T11:19:13.136Z,50.849480
2023-05-05T11:20:13.176Z,50.849518
2023-05-05T11:21:13.133Z,50.849472
2023-05-05T11:22:13.122Z,50.849476
2023-05-05T11:23:15.210Z,50.849503
2023-05-05T11:24:13.265Z,50.849537
2023-05-05T11:25:13.097Z,50.849522
2023-05-05T11:26:13.070Z,50.849529
2023-05-05T11:27:14.095Z,50.849522